createdAt,value
2022-10-01T00:01:13.175Z,24.10
2022-10-01T00:03:40.656Z,24.10
2022-10-01T00:06:11.672Z,24.09
2022-10-01T00:08:40.876Z,24.10
2022-10-01T00:11:11.020Z,24.08
2022-10-01T00:13:38.887Z,24.06
2022-10-01T00:16:07.212Z,24.07
2022-10-01T00:18:36.716Z,24.09
2022-10-01T00:21:07.871Z,24.11
2022-10-01T00:23:35.233Z,24.09
2022-10-01T00:26:12.101Z,24.11
2022-10-01T00:28:39.306Z,24.07
2022-10-01T00:31:07.660Z,24.07
2022-10-01T00:33:35.315Z,24.05
2022-10-01T00:36:02.660Z,24.05
2022-10-01T00:38:30.983Z,24.08
2022-10-01T00:40:58.299Z,24.09
2022-10-01T00:43:28.815Z,24.08
2022-10-01T00:46:00.856Z,24.11
2022-10-01T00:48:30.227Z,24.12
2022-10-01T00:50:58.568Z,24.09
2022-10-01T00:53:26.140Z,24.08
2022-10-01T00:55:56.899Z,24.06
2022-10-01T00:58:26.800Z,24.07
2022-10-01T01:00:56.634Z,24.07
2022-10-01T01:03:24.748Z,24.07
2022-10-01T01:05:52.052Z,24.04
2022-10-01T01:08:19.263Z,24.04
2022-10-01T01:11:03.912Z,23.98
2022-10-01T01:13:38.186Z,24.06
2022-10-01T01:16:09.122Z,24.07
2022-10-01T01:18:42.764Z,24.11
2022-10-01T01:21:19.287Z,24.06
2022-10-01T01:24:03.692Z,24.07
2022-10-01T01:26:40.264Z,24.04
2022-10-01T01:29:13.564Z,24.08
2022-10-01T01:31:45.966Z,24.10
2022-10-01T01:34:19.927Z,24.07
2022-10-01T01:36:53.063Z,24.05
2022-10-01T01:39:22.944Z,24.05
2022-10-01T01:41:56.816Z,24.05
2022-10-01T01:44:29.646Z,24.04
2022-10-01T01:46:58.700Z,24.04
2022-10-01T01:49:25.804Z,24.04
2022-10-01T01:51:58.447Z,24.02
2022-10-01T01:54:25.580Z,24.01
2022-10-01T01:56:55.269Z,24.00
2022-10-01T01:59:22.448Z,24.02
2022-10-01T02:01:50.932Z,23.96
2022-10-01T02:04:23.319Z,23.96
2022-10-01T02:07:10.998Z,23.98
2022-10-01T02:09:50.247Z,23.99
2022-10-01T02:12:37.673Z,24.02
2022-10-01T02:15:13.883Z,24.05
2022-10-01T02:17:52.244Z,23.99
2022-10-01T02:20:26.456Z,24.02
2022-10-01T02:22:56.587Z,24.01
2022-10-01T02:25:27.696Z,24.02
2022-10-01T02:27:58.320Z,24.04
2022-10-01T02:30:25.552Z,24.02
2022-10-01T02:32:57.032Z,24.00
2022-10-01T02:35:24.314Z,24.01
2022-10-01T02:37:53.664Z,24.00
2022-10-01T02:40:24.433Z,23.99
2022-10-01T02:42:55.538Z,23.98
2022-10-01T02:45:25.999Z,24.02
2022-10-01T02:47:57.687Z,24.00
2022-10-01T02:50:29.405Z,23.97
2022-10-01T02:53:02.703Z,23.96
2022-10-01T02:55:33.581Z,23.93
2022-10-01T02:58:01.150Z,23.91
2022-10-01T03:00:28.344Z,23.97
2022-10-01T03:02:56.911Z,23.95
2022-10-01T03:05:24.244Z,23.97
2022-10-01T03:07:51.339Z,23.98
2022-10-01T03:10:18.679Z,23.97
2022-10-01T03:12:46.365Z,23.94
2022-10-01T03:15:15.910Z,23.98
2022-10-01T03:17:43.095Z,23.98
2022-10-01T03:20:12.540Z,23.96
2022-10-01T03:22:39.646Z,23.96
2022-10-01T03:25:07.468Z,23.96
2022-10-01T03:27:34.843Z,23.99
2022-10-01T03:30:02.219Z,23.99
2022-10-01T03:32:29.362Z,23.99
2022-10-01T03:34:56.479Z,23.99
2022-10-01T03:37:25.358Z,23.94
2022-10-01T03:39:52.530Z,23.96
2022-10-01T03:42:19.629Z,23.95
2022-10-01T03:44:46.735Z,23.93
2022-10-01T03:47:13.931Z,23.94
2022-10-01T03:49:41.026Z,23.91
2022-10-01T03:52:08.304Z,23.90
2022-10-01T03:54:36.824Z,23.94
2022-10-01T03:57:04.050Z,24.00
2022-10-01T03:59:31.161Z,23.97
2022-10-01T04:01:58.403Z,23.94
2022-10-01T04:04:25.573Z,23.91
2022-10-01T04:06:52.668Z,23.93
2022-10-01T04:09:19.783Z,23.96
2022-10-01T04:11:48.237Z,23.91
2022-10-01T04:14:15.332Z,23.95
2022-10-01T04:16:42.727Z,23.94
2022-10-01T04:19:09.862Z,23.93
2022-10-01T04:21:37.387Z,23.94
2022-10-01T04:24:05.028Z,23.94
2022-10-01T04:26:32.136Z,23.94
2022-10-01T04:29:00.575Z,23.91
2022-10-01T04:31:27.915Z,23.94
2022-10-01T04:33:57.167Z,23.92
2022-10-01T04:36:25.107Z,23.92
2022-10-01T04:38:54.689Z,23.87
2022-10-01T04:41:23.991Z,23.91
2022-10-01T04:43:51.088Z,23.89
2022-10-01T04:46:19.605Z,23.88
2022-10-01T04:48:48.113Z,23.81
2022-10-01T04:51:15.235Z,23.86
2022-10-01T04:53:42.655Z,23.87
2022-10-01T04:56:09.780Z,23.85
2022-10-01T04:58:36.902Z,23.90
2022-10-01T05:01:04.076Z,23.88
2022-10-01T05:03:32.685Z,23.92
2022-10-01T05:05:59.819Z,23.91
2022-10-01T05:08:27.367Z,23.90
2022-10-01T05:10:54.503Z,23.94
2022-10-01T05:13:21.604Z,23.93
2022-10-01T05:15:49.857Z,23.93
2022-10-01T05:18:17.071Z,23.93
2022-10-01T05:20:45.648Z,23.95
2022-10-01T05:23:12.927Z,23.93
2022-10-01T05:25:40.047Z,23.98
2022-10-01T05:28:07.230Z,24.09
2022-10-01T05:30:34.718Z,24.01
2022-10-01T05:33:04.541Z,24.06
2022-10-01T05:35:32.078Z,24.05
2022-10-01T05:38:01.727Z,24.08
2022-10-01T05:40:30.412Z,24.09
2022-10-01T05:42:58.510Z,24.09
2022-10-01T05:45:27.539Z,24.08
2022-10-01T05:47:59.210Z,24.12
2022-10-01T05:50:28.592Z,24.12
2022-10-01T05:52:55.701Z,24.14
2022-10-01T05:55:24.401Z,24.14
2022-10-01T05:57:55.984Z,24.15
2022-10-01T06:00:23.463Z,24.10
2022-10-01T06:02:51.706Z,23.89
2022-10-01T06:05:19.414Z,23.69
2022-10-01T06:07:48.015Z,23.53
2022-10-01T06:10:15.458Z,23.25
2022-10-01T06:12:44.762Z,23.24
2022-10-01T06:15:12.831Z,23.20
2022-10-01T06:17:39.963Z,23.26
2022-10-01T06:20:07.704Z,23.28
2022-10-01T06:22:34.801Z,23.35
2022-10-01T06:25:01.919Z,23.53
2022-10-01T06:27:29.140Z,23.69
2022-10-01T06:29:57.591Z,23.85
2022-10-01T06:32:24.696Z,23.88
2022-10-01T06:34:51.804Z,23.91
2022-10-01T06:37:18.908Z,23.91
2022-10-01T06:39:46.018Z,23.99
2022-10-01T06:42:13.120Z,23.97
2022-10-01T06:44:40.201Z,23.98
2022-10-01T06:47:08.649Z,24.09
2022-10-01T06:49:35.777Z,24.11
2022-10-01T06:52:02.869Z,24.09
2022-10-01T06:54:29.997Z,24.09
2022-10-01T06:56:57.200Z,24.12
2022-10-01T06:59:24.306Z,24.14
2022-10-01T07:01:56.065Z,24.16
2022-10-01T07:04:24.904Z,24.13
2022-10-01T07:06:52.013Z,24.10
2022-10-01T07:09:19.106Z,24.07
2022-10-01T07:11:46.252Z,24.05
2022-10-01T07:14:13.431Z,24.03
2022-10-01T07:16:40.568Z,24.02
2022-10-01T07:19:07.859Z,24.05
2022-10-01T07:21:36.670Z,24.04
2022-10-01T07:24:04.497Z,24.05
2022-10-01T07:26:31.940Z,24.02
2022-10-01T07:28:59.030Z,24.04
2022-10-01T07:31:26.131Z,24.01
2022-10-01T07:33:56.974Z,24.03
2022-10-01T07:36:24.324Z,24.04
2022-10-01T07:38:52.766Z,24.03
2022-10-01T07:41:19.901Z,24.09
2022-10-01T07:43:47.247Z,24.13
2022-10-01T07:46:14.442Z,24.13
2022-10-01T07:48:41.655Z,24.17
2022-10-01T07:51:08.769Z,24.11
2022-10-01T07:53:35.865Z,24.14
2022-10-01T07:56:04.648Z,24.13
2022-10-01T07:58:31.753Z,24.14
2022-10-01T08:01:03.594Z,24.11
2022-10-01T08:03:30.768Z,24.13
2022-10-01T08:05:57.872Z,24.07
2022-10-01T08:08:25.454Z,24.07
2022-10-01T08:10:52.576Z,24.06
2022-10-01T08:13:21.234Z,24.00
2022-10-01T08:15:48.347Z,24.04
2022-10-01T08:18:15.560Z,24.03
2022-10-01T08:20:42.659Z,24.01
2022-10-01T08:23:11.988Z,24.03
2022-10-01T08:25:39.923Z,24.06
2022-10-01T08:28:07.644Z,24.12
2022-10-01T08:30:36.948Z,24.14
2022-10-01T08:33:04.181Z,24.12
2022-10-01T08:35:31.824Z,24.10
2022-10-01T08:38:01.415Z,24.10
2022-10-01T08:40:28.887Z,24.14
2022-10-01T08:42:58.175Z,24.14
2022-10-01T08:45:28.819Z,24.14
2022-10-01T08:48:03.169Z,24.14
2022-10-01T08:50:41.589Z,24.12
2022-10-01T08:53:15.555Z,24.11
2022-10-01T08:55:44.110Z,24.13
2022-10-01T08:58:23.526Z,24.13
2022-10-01T09:00:50.699Z,24.13
2022-10-01T09:03:19.262Z,24.11
2022-10-01T09:05:55.362Z,24.09
2022-10-01T09:08:34.777Z,24.12
2022-10-01T09:11:06.899Z,24.25
2022-10-01T09:13:50.393Z,24.56
2022-10-01T09:16:25.363Z,24.44
2022-10-01T09:19:10.592Z,24.36
2022-10-01T09:21:50.976Z,24.35
2022-10-01T09:24:32.094Z,24.37
2022-10-01T09:26:59.748Z,24.38
2022-10-01T09:29:32.454Z,24.44
2022-10-01T09:32:01.945Z,24.44
2022-10-01T09:34:37.171Z,24.43
2022-10-01T09:37:12.515Z,24.34
2022-10-01T09:39:46.487Z,24.33
2022-10-01T09:42:13.716Z,24.34
2022-10-01T09:44:40.909Z,24.30
2022-10-01T09:47:16.772Z,24.28
2022-10-01T09:49:45.878Z,24.24
2022-10-01T09:52:16.806Z,24.25
2022-10-01T09:54:49.059Z,24.25
2022-10-01T09:57:22.836Z,24.24
2022-10-01T09:59:56.926Z,24.22
2022-10-01T10:02:26.158Z,24.23
2022-10-01T10:05:01.149Z,24.21
2022-10-01T10:07:29.485Z,24.20
2022-10-01T10:09:56.605Z,24.25
2022-10-01T10:12:28.212Z,24.29
2022-10-01T10:14:56.584Z,24.32
2022-10-01T10:17:23.973Z,24.37
2022-10-01T10:19:52.096Z,24.37
2022-10-01T10:22:25.282Z,24.38
2022-10-01T10:24:53.032Z,24.40
2022-10-01T10:27:23.944Z,24.39
2022-10-01T10:30:01.864Z,24.40
2022-10-01T10:32:29.704Z,24.38
2022-10-01T10:35:02.864Z,24.34
2022-10-01T10:37:36.469Z,24.32
2022-10-01T10:40:06.338Z,24.28
2022-10-01T10:42:34.513Z,24.32
2022-10-01T10:45:03.432Z,24.30
2022-10-01T10:47:30.736Z,24.29
2022-10-01T10:50:01.018Z,24.29
2022-10-01T10:52:32.239Z,24.25
2022-10-01T10:55:01.650Z,24.28
2022-10-01T10:57:30.826Z,24.23
2022-10-01T10:59:59.561Z,24.23
2022-10-01T11:02:28.361Z,24.22
2022-10-01T11:04:57.566Z,24.22
2022-10-01T11:07:27.312Z,24.20
2022-10-01T11:10:14.852Z,24.24
2022-10-01T11:13:06.088Z,24.23
2022-10-01T11:15:52.090Z,24.18
2022-10-01T11:18:36.764Z,24.20
2022-10-01T11:21:44.256Z,24.17
2022-10-01T11:24:28.894Z,24.17
2022-10-01T11:27:05.600Z,24.21
2022-10-01T11:29:43.080Z,24.17
2022-10-01T11:32:19.778Z,24.18
2022-10-01T11:35:11.318Z,24.12
2022-10-01T11:37:50.025Z,24.17
2022-10-01T11:40:22.449Z,24.18
2022-10-01T11:42:55.220Z,24.14
2022-10-01T11:45:25.536Z,24.13
2022-10-01T11:47:55.866Z,24.14
2022-10-01T11:50:27.756Z,24.12
2022-10-01T11:52:58.875Z,24.11
2022-10-01T11:55:30.955Z,24.09
2022-10-01T11:58:07.010Z,24.06
2022-10-01T12:00:36.961Z,24.05
2022-10-01T12:03:12.944Z,24.05
2022-10-01T12:05:41.503Z,24.08
2022-10-01T12:08:17.786Z,24.07
2022-10-01T12:10:50.759Z,24.07
2022-10-01T12:13:26.073Z,24.11
2022-10-01T12:15:57.820Z,24.13
2022-10-01T12:18:30.348Z,24.13
2022-10-01T12:21:00.312Z,24.13
2022-10-01T12:23:31.921Z,24.13
2022-10-01T12:26:07.697Z,24.14
2022-10-01T12:28:51.561Z,24.14
2022-10-01T12:31:28.035Z,24.13
2022-10-01T12:34:13.442Z,24.09
2022-10-01T12:36:55.172Z,24.12
2022-10-01T12:39:38.571Z,24.12
2022-10-01T12:42:26.326Z,24.12
2022-10-01T12:45:08.619Z,24.12
2022-10-01T12:47:45.820Z,24.11
2022-10-01T12:50:36.678Z,24.09
2022-10-01T12:53:19.456Z,24.08
2022-10-01T12:56:01.153Z,24.09
2022-10-01T12:58:54.475Z,24.11
2022-10-01T13:01:36.030Z,24.10
2022-10-01T13:04:20.552Z,24.12
2022-10-01T13:06:52.815Z,24.14
2022-10-01T13:09:30.430Z,24.20
2022-10-01T13:12:15.446Z,24.19
2022-10-01T13:14:44.023Z,24.17
2022-10-01T13:17:23.307Z,24.12
2022-10-01T13:19:57.759Z,24.10
2022-10-01T13:22:34.289Z,24.07
2022-10-01T13:25:18.599Z,24.11
2022-10-01T13:27:54.171Z,24.11
2022-10-01T13:30:23.814Z,24.10
2022-10-01T13:32:54.822Z,24.17
2022-10-01T13:35:26.437Z,24.19
2022-10-01T13:37:53.672Z,24.19
2022-10-01T13:40:24.265Z,24.11
2022-10-01T13:42:53.386Z,24.09
2022-10-01T13:45:25.541Z,24.05
2022-10-01T13:48:05.355Z,24.02
2022-10-01T13:50:32.631Z,24.05
2022-10-01T13:53:07.459Z,24.04
2022-10-01T13:55:39.789Z,24.05
2022-10-01T13:58:22.610Z,24.10
2022-10-01T14:00:50.474Z,24.10
2022-10-01T14:03:37.792Z,24.16
2022-10-01T14:06:08.269Z,24.19
2022-10-01T14:08:42.746Z,24.24
2022-10-01T14:11:12.794Z,24.19
2022-10-01T14:13:46.572Z,24.20
2022-10-01T14:16:14.630Z,24.24
2022-10-01T14:18:47.859Z,24.18
2022-10-01T14:21:33.122Z,24.18
2022-10-01T14:24:09.107Z,24.16
2022-10-01T14:26:43.416Z,24.18
2022-10-01T14:29:22.377Z,24.12
2022-10-01T14:31:58.935Z,24.16
2022-10-01T14:34:38.754Z,24.21
2022-10-01T14:37:07.003Z,24.23
2022-10-01T14:39:34.380Z,24.21
2022-10-01T14:42:16.440Z,24.23
2022-10-01T14:44:45.728Z,24.22
2022-10-01T14:47:16.809Z,24.18
2022-10-01T14:49:46.063Z,24.16
2022-10-01T14:52:20.825Z,24.19
2022-10-01T14:54:51.616Z,24.19
2022-10-01T14:57:26.763Z,24.23
2022-10-01T14:59:55.091Z,24.23
2022-10-01T15:02:24.550Z,24.18
2022-10-01T15:04:54.662Z,24.21
2022-10-01T15:07:22.160Z,24.21
2022-10-01T15:09:49.678Z,24.20
2022-10-01T15:12:20.234Z,24.20
2022-10-01T15:14:52.721Z,24.18
2022-10-01T15:17:22.957Z,24.15
2022-10-01T15:19:52.667Z,24.10
2022-10-01T15:22:23.510Z,24.07
2022-10-01T15:24:52.849Z,24.13
2022-10-01T15:27:21.425Z,24.16
2022-10-01T15:29:56.348Z,24.19
2022-10-01T15:32:25.131Z,24.18
2022-10-01T15:34:54.692Z,24.15
2022-10-01T15:37:27.864Z,24.17
2022-10-01T15:39:56.007Z,24.18
2022-10-01T15:42:26.732Z,24.14
2022-10-01T15:45:22.484Z,24.13
2022-10-01T15:47:50.159Z,24.15
2022-10-01T15:50:19.772Z,24.15
2022-10-01T15:52:54.825Z,24.14
2022-10-01T15:55:27.420Z,24.15
2022-10-01T15:57:57.439Z,24.14
2022-10-01T16:00:27.143Z,24.10
2022-10-01T16:02:56.549Z,24.08
2022-10-01T16:05:26.905Z,24.13
2022-10-01T16:07:57.479Z,24.11
2022-10-01T16:10:42.292Z,24.13
2022-10-01T16:13:35.079Z,24.10
2022-10-01T16:16:18.921Z,24.06
2022-10-01T16:18:48.284Z,24.10
2022-10-01T16:21:15.402Z,24.11
2022-10-01T16:23:44.955Z,24.09
2022-10-01T16:26:39.564Z,24.16
2022-10-01T16:29:20.337Z,24.20
2022-10-01T16:31:47.643Z,24.20
2022-10-01T16:34:16.600Z,24.17
2022-10-01T16:36:44.207Z,24.12
2022-10-01T16:39:13.347Z,24.14
2022-10-01T16:41:41.025Z,24.13
2022-10-01T16:44:12.158Z,24.16
2022-10-01T16:46:39.408Z,24.16
2022-10-01T16:49:11.665Z,24.22
2022-10-01T16:51:38.827Z,24.13
2022-10-01T16:54:06.345Z,24.06
2022-10-01T16:56:35.265Z,24.06
2022-10-01T16:59:02.677Z,24.04
2022-10-01T17:01:31.150Z,23.97
2022-10-01T17:03:58.302Z,23.97
2022-10-01T17:06:25.403Z,23.98
2022-10-01T17:08:52.508Z,23.98
2022-10-01T17:11:19.860Z,23.97
2022-10-01T17:13:48.343Z,24.00
2022-10-01T17:16:15.576Z,23.99
2022-10-01T17:18:42.715Z,23.98
2022-10-01T17:21:10.115Z,24.03
2022-10-01T17:23:37.222Z,24.08
2022-10-01T17:26:05.519Z,24.11
2022-10-01T17:28:32.773Z,24.11
2022-10-01T17:31:01.335Z,24.09
2022-10-01T17:33:28.449Z,24.04
2022-10-01T17:35:55.587Z,24.07
2022-10-01T17:38:23.309Z,24.04
2022-10-01T17:40:55.664Z,24.08
2022-10-01T17:43:23.440Z,24.06
2022-10-01T17:45:55.696Z,24.04
2022-10-01T17:48:24.536Z,24.03
2022-10-01T17:50:58.737Z,24.04
2022-10-01T17:53:29.603Z,24.03
2022-10-01T17:56:04.510Z,24.06
2022-10-01T17:58:31.612Z,24.07
2022-10-01T18:00:58.737Z,24.09
2022-10-01T18:03:27.230Z,24.04
2022-10-01T18:06:00.257Z,24.07
2022-10-01T18:08:44.611Z,24.09
2022-10-01T18:11:14.949Z,24.09
2022-10-01T18:13:42.103Z,24.09
2022-10-01T18:16:15.068Z,24.05
2022-10-01T18:21:34.902Z,24.07
2022-10-01T18:24:04.734Z,24.05
2022-10-01T18:26:32.857Z,24.02
2022-10-01T18:29:00.225Z,24.03
2022-10-01T18:31:33.868Z,24.03
2022-10-01T18:34:05.898Z,24.02
2022-10-01T18:36:42.531Z,24.03
2022-10-01T18:39:16.726Z,24.02
2022-10-01T18:41:43.939Z,23.95
2022-10-01T18:44:18.008Z,24.00
2022-10-01T18:46:59.244Z,23.97
2022-10-01T18:49:53.071Z,23.98
2022-10-01T18:52:31.498Z,24.06
2022-10-01T18:55:20.980Z,24.07
2022-10-01T18:58:04.787Z,24.05
2022-10-01T19:00:39.418Z,24.06
2022-10-01T19:03:31.164Z,24.06
2022-10-01T19:06:18.658Z,24.04
2022-10-01T19:09:01.339Z,24.05
2022-10-01T19:11:38.455Z,24.07
2022-10-01T19:14:26.689Z,24.06
2022-10-01T19:17:02.508Z,24.04
2022-10-01T19:19:39.192Z,24.02
2022-10-01T19:22:17.274Z,24.02
2022-10-01T19:25:08.987Z,24.00
2022-10-01T19:27:53.978Z,24.01
2022-10-01T19:30:21.364Z,23.96
2022-10-01T19:32:56.329Z,23.92
2022-10-01T19:35:27.619Z,23.96
2022-10-01T19:38:01.390Z,23.98
2022-10-01T19:40:33.138Z,23.98
2022-10-01T19:43:08.086Z,24.00
2022-10-01T19:45:44.626Z,23.97
2022-10-01T19:48:18.562Z,23.97
2022-10-01T19:50:51.789Z,24.01
2022-10-01T19:53:24.069Z,23.97
2022-10-01T19:55:52.153Z,24.00
2022-10-01T19:58:20.680Z,23.98
2022-10-01T20:00:52.815Z,23.97
2022-10-01T20:03:26.989Z,23.96
2022-10-01T20:05:57.051Z,23.96
2022-10-01T20:08:33.721Z,23.96
2022-10-01T20:11:09.405Z,23.94
2022-10-01T20:13:49.836Z,23.95
2022-10-01T20:16:24.272Z,23.91
2022-10-01T20:18:57.468Z,23.92
2022-10-01T20:21:42.000Z,23.88
2022-10-01T20:24:23.658Z,23.90
2022-10-01T20:26:55.448Z,23.91
2022-10-01T20:29:35.469Z,23.94
2022-10-01T20:32:10.357Z,23.92
2022-10-01T20:34:47.892Z,23.93
2022-10-01T20:37:27.690Z,23.92
2022-10-01T20:40:02.564Z,23.96
2022-10-01T20:42:35.812Z,24.03
2022-10-01T20:45:04.432Z,23.95
2022-10-01T20:47:36.468Z,23.99
2022-10-01T20:50:09.685Z,23.95
2022-10-01T20:52:47.322Z,23.93
2022-10-01T20:55:20.960Z,23.92
2022-10-01T20:57:52.839Z,23.90
2022-10-01T21:00:22.964Z,23.88
2022-10-01T21:02:56.113Z,23.89
2022-10-01T21:05:28.554Z,23.91
2022-10-01T21:08:00.805Z,23.92
2022-10-01T21:10:36.060Z,23.90
2022-10-01T21:13:14.922Z,23.86
2022-10-01T21:15:53.641Z,23.89
2022-10-01T21:18:36.122Z,23.91
2022-10-01T21:21:14.791Z,23.93
2022-10-01T21:24:04.013Z,23.95
2022-10-01T21:26:43.055Z,23.93
2022-10-01T21:29:25.534Z,23.98
2022-10-01T21:32:05.690Z,23.99
2022-10-01T21:34:44.324Z,23.96
2022-10-01T21:37:16.215Z,23.95
2022-10-01T21:39:55.752Z,23.93
2022-10-01T21:42:34.257Z,23.95
2022-10-01T21:45:14.415Z,23.91
2022-10-01T21:47:58.290Z,23.91
2022-10-01T21:50:36.761Z,23.88
2022-10-01T21:53:33.496Z,23.88
2022-10-01T21:56:28.525Z,23.85
2022-10-01T21:59:07.292Z,23.86
2022-10-01T22:01:57.414Z,23.81
2022-10-01T22:04:31.701Z,23.82
2022-10-01T22:07:05.389Z,23.86
2022-10-01T22:09:38.192Z,23.92
2022-10-01T22:12:07.102Z,23.93
2022-10-01T22:14:35.588Z,23.89
2022-10-01T22:17:11.599Z,23.92
2022-10-01T22:19:42.837Z,23.90
2022-10-01T22:22:14.802Z,23.91
2022-10-01T22:24:46.792Z,23.91
2022-10-01T22:27:19.685Z,23.88
2022-10-01T22:29:55.084Z,23.87
2022-10-01T22:32:25.436Z,23.88
2022-10-01T22:34:57.787Z,23.86
2022-10-01T22:37:31.710Z,23.86
2022-10-01T22:40:07.485Z,23.85
2022-10-01T22:42:38.348Z,23.85
2022-10-01T22:45:13.236Z,23.87
2022-10-01T22:47:56.496Z,23.85
2022-10-01T22:50:36.392Z,23.82
2022-10-01T22:53:27.662Z,23.79
2022-10-01T22:55:56.515Z,23.78
2022-10-01T22:58:44.572Z,23.82
2022-10-01T23:01:19.597Z,23.85
2022-10-01T23:04:00.875Z,23.82
2022-10-01T23:06:36.490Z,23.86
2022-10-01T23:09:12.086Z,23.89
2022-10-01T23:11:51.353Z,23.93
2022-10-01T23:14:36.563Z,23.89
2022-10-01T23:17:13.659Z,23.88
2022-10-01T23:19:51.592Z,23.88
2022-10-01T23:22:34.031Z,23.87
2022-10-01T23:25:13.853Z,23.89
2022-10-01T23:27:53.943Z,23.84
2022-10-01T23:30:21.767Z,23.86
2022-10-01T23:33:18.540Z,23.85
2022-10-01T23:35:51.084Z,23.82
2022-10-01T23:38:38.374Z,23.82
2022-10-01T23:41:15.328Z,23.83
2022-10-01T23:43:45.077Z,23.81
2022-10-01T23:46:17.518Z,23.76
2022-10-01T23:48:51.775Z,23.82
2022-10-01T23:51:21.377Z,23.86
2022-10-01T23:53:55.152Z,23.91
2022-10-01T23:56:26.784Z,23.86
2022-10-01T23:59:00.871Z,23.88
